Česky Dansk Deutsch English Español Suomi Français Magyar Italiano Nederlands norsk Polski Português svenska Türkçe

 

Het Weer

Disforth (Groot Britanië)

09:50, 6 juni 2016 (GMT)

NWNNE
WE
SWSSE
Home            
Disforth Topcliffe Royal Air Force Base Linton-On-Ouse Leeming Leeds And Bradford Church Fenton Tees-Side Leconfield Yorkshire and Humberside, Sheffield City Humberside Newcastle Manchester Airport Scampton Blackpool Airport Walney Island Waddington Woodvale Spadeadam Liverpool Airport Newton Carlisle Cranwell Barkston Heath Royal Air Force Base

Om een weerknop op uw website of weblog te plaatsen, copieer onderstaande code en plak die in uw pagina. In het eerste vakje staat HTML-code, in het tweede vakje UBB-code.


Add to Google

Details

Wind speed:2 bf, 4 kn, 2.1 m/s, 4.6 miles/h, 7.4 km/h
Wind direction:SSE, 160°
Visibility:Greater than 10000 m, 10 km, 32800 ft, 6.2 miles
Het Weer:moderate
Temperature:18°C, 64°F
Dew-point:11°C, 52°F
Atmospheric pressure:1023 hPa, 767.3 mmHg, 30.21 inHg, 1.010 atm
Relative humidity:63.6 %
METAR:EGXD 060950Z AUTO 16004KT 9999 NCD 18/11 Q1023

Snelkoppelingen

Actuele weersinformatie van de hele wereld. Voeg locaties toe met het plus (+) symbool. Deze snelkoppelingen kunnen worden toegevoegd aan Google.

Lid van de Technetium groep

website free tracking
StatCounter NetStat W3C Validator

19-10-2020 05:08:32
astro.technetium.be money.technetium.be phote.technetium.be tafeltennistafel.technetium.be www.ligfiets.net